Terminal Aerodrome Forecast
Issued by NWS

Current Version | Previous Version | Text Only | Print | Product List | Glossary On
Versions: 1 2 3 4 5 6 7 8 9 10 11 12 13 14 15 16 17 18 19 20
000
FTUS43 KIND 022300
TAFHUF
TAF
KHUF 022320Z 0300/0324 10007KT P6SM OVC080
     FM030900 12007KT 4SM -FZRAPL BR SCT015 OVC040
     FM031200 14010KT 3SM -FZRA BR OVC015
     FM031500 18012KT 3SM -RA BR OVC008
     FM032000 22013G23KT 3SM RA BR OVC008=

USA.gov is the U.S. government's official web portal to all federal, state and local government web resources and services.